Time;durP1;ratioP1;P1;durP2;ratioP2;P2;SDS_P1;SDS_P2;PMS_P1;PMS_P2;Temp;Humidity;BMP_temperature;BMP_pressure;BME280_temperature;BME280_humidity;BME280_pressure;Samples;Min_cycle;Max_cycle;Signal;HPM_P1;HPM_P2
2024/02/19 00:01:25;;;;;;;60.17;7.40;;;;;;;;;;5124841;28;20265;-62
2024/02/19 00:03:51;;;;;;;46.93;8.20;;;;;;;;;;5130478;28;20059;-61
2024/02/19 00:06:16;;;;;;;58.40;8.07;;;;;;;;;;5116497;28;20273;-60
2024/02/19 00:08:42;;;;;;;51.85;7.30;;;;;;;;;;5114721;28;20044;-60
2024/02/19 00:11:08;;;;;;;63.95;7.70;;;;;;;;;;5118728;28;20058;-61
2024/02/19 00:13:33;;;;;;;46.70;7.13;;;;;;;;;;5114450;28;20035;-60
2024/02/19 00:15:59;;;;;;;56.50;8.07;;;;;;;;;;5114281;28;20088;-61
2024/02/19 00:18:25;;;;;;;54.88;7.25;;;;;;;;;;5113363;28;20075;-61
2024/02/19 00:20:51;;;;;;;56.47;6.10;;;;;;;;;;5114033;28;20024;-61
2024/02/19 00:23:17;;;;;;;52.03;7.57;;;;;;;;;;5116412;28;20036;-62
2024/02/19 00:25:42;;;;;;;48.40;6.45;;;;;;;;;;5114727;28;20074;-61
2024/02/19 00:28:10;;;;;;;53.97;7.38;;;;;;;;;;5119238;28;20028;-60
2024/02/19 00:30:36;;;;;;;39.77;7.03;;;;;;;;;;5118529;28;20036;-60
2024/02/19 00:33:01;;;;;;;48.90;6.07;;;;;;;;;;5122974;28;20283;-63
2024/02/19 00:35:27;;;;;;;52.00;6.38;;;;;;;;;;5121065;28;20082;-60
2024/02/19 00:37:52;;;;;;;54.07;7.00;;;;;;;;;;5123026;28;20036;-60
2024/02/19 00:40:21;;;;;;;67.05;7.22;;;;;;;;;;5118483;28;20035;-60
2024/02/19 00:42:46;;;;;;;31.53;5.87;;;;;;;;;;5115718;28;20048;-60
2024/02/19 00:45:12;;;;;;;32.80;5.93;;;;;;;;;;5109764;28;20307;-60
2024/02/19 00:47:38;;;;;;;59.78;6.28;;;;;;;;;;5115320;28;20049;-60
2024/02/19 00:50:03;;;;;;;37.80;6.20;;;;;;;;;;5112847;28;20095;-59
2024/02/19 00:52:29;;;;;;;36.40;5.00;;;;;;;;;;5119265;28;20035;-59
2024/02/19 00:54:57;;;;;;;46.23;5.97;;;;;;;;;;5118328;28;20295;-61
2024/02/19 00:57:23;;;;;;;35.80;4.87;;;;;;;;;;5114192;28;20035;-60
2024/02/19 00:59:48;;;;;;;48.83;5.80;;;;;;;;;;5109911;28;20479;-60
2024/02/19 01:02:14;;;;;;;41.47;5.83;;;;;;;;;;5111970;28;20039;-60
2024/02/19 01:04:40;;;;;;;43.40;7.20;;;;;;;;;;5126975;28;20100;-58
2024/02/19 01:07:05;;;;;;;33.55;5.20;;;;;;;;;;5114824;28;20060;-59
2024/02/19 01:09:30;;;;;;;33.83;5.23;;;;;;;;;;5104329;28;20028;-59
2024/02/19 01:11:56;;;;;;;42.40;6.63;;;;;;;;;;5111913;28;20032;-59
2024/02/19 01:14:21;;;;;;;56.38;6.03;;;;;;;;;;5112072;28;20487;-60
2024/02/19 01:16:47;;;;;;;32.13;4.40;;;;;;;;;;5110250;28;20027;-60
2024/02/19 01:19:12;;;;;;;41.37;5.20;;;;;;;;;;5117825;28;20036;-59
2024/02/19 01:21:38;;;;;;;37.60;5.00;;;;;;;;;;5117793;28;20265;-60
2024/02/19 01:24:03;;;;;;;38.97;6.07;;;;;;;;;;5115516;28;20261;-60
2024/02/19 01:26:30;;;;;;;39.33;4.70;;;;;;;;;;5112213;28;20261;-60
2024/02/19 01:28:56;;;;;;;51.60;5.20;;;;;;;;;;5101618;28;20281;-60
2024/02/19 01:31:22;;;;;;;47.43;5.27;;;;;;;;;;5101231;28;20268;-59
2024/02/19 01:33:48;;;;;;;;;;;;;;;;;;5118047;28;20091;-59
2024/02/19 01:36:14;;;;;;;42.97;4.17;;;;;;;;;;5105821;28;19909;-60
2024/02/19 01:38:41;;;;;;;33.50;4.60;;;;;;;;;;5115418;28;20273;-61
2024/02/19 01:41:07;;;;;;;41.53;5.80;;;;;;;;;;5117312;28;20259;-60
2024/02/19 01:43:32;;;;;;;40.53;4.60;;;;;;;;;;5121392;28;20289;-60
2024/02/19 01:45:58;;;;;;;39.90;5.23;;;;;;;;;;5117726;28;20058;-60
2024/02/19 01:48:24;;;;;;;42.72;5.35;;;;;;;;;;5116788;28;20310;-59
2024/02/19 01:50:49;;;;;;;41.88;5.90;;;;;;;;;;5117305;28;20069;-59
2024/02/19 01:53:16;;;;;;;34.60;4.75;;;;;;;;;;5123290;28;20040;-58
2024/02/19 01:55:42;;;;;;;36.22;4.63;;;;;;;;;;5105201;28;20032;-59
2024/02/19 01:58:10;;;;;;;37.70;5.10;;;;;;;;;;5115741;28;20077;-60
2024/02/19 02:00:44;;;;;;;41.23;6.50;;;;;;;;;;5117104;28;20084;-60
2024/02/19 02:03:10;;;;;;;32.38;5.20;;;;;;;;;;5120355;28;20252;-59
2024/02/19 02:05:36;;;;;;;39.67;5.03;;;;;;;;;;5121820;28;20055;-58
2024/02/19 02:08:05;;;;;;;36.30;5.23;;;;;;;;;;5117740;28;20286;-58
2024/02/19 02:10:30;;;;;;;42.43;5.27;;;;;;;;;;5115875;28;20279;-60
2024/02/19 02:12:56;;;;;;;42.80;5.60;;;;;;;;;;5125415;28;20260;-59
2024/02/19 02:15:21;;;;;;;41.67;6.13;;;;;;;;;;5116599;28;20032;-59
2024/02/19 02:17:46;;;;;;;38.30;4.90;;;;;;;;;;5118123;28;20383;-60
2024/02/19 02:20:12;;;;;;;41.97;5.80;;;;;;;;;;5116861;28;20050;-60
2024/02/19 02:22:38;;;;;;;43.70;5.95;;;;;;;;;;5118898;28;20031;-59
2024/02/19 02:25:04;;;;;;;24.83;5.83;;;;;;;;;;5110438;28;20070;-58
2024/02/19 02:27:30;;;;;;;37.17;4.83;;;;;;;;;;5116619;28;20269;-59
2024/02/19 02:29:55;;;;;;;43.20;5.80;;;;;;;;;;5116990;28;20260;-57
2024/02/19 02:32:21;;;;;;;52.10;6.33;;;;;;;;;;5121170;28;20287;-59
2024/02/19 02:34:46;;;;;;;43.03;6.18;;;;;;;;;;5119112;28;20070;-59
2024/02/19 02:37:13;;;;;;;27.20;4.22;;;;;;;;;;5117515;28;20102;-59
2024/02/19 02:39:39;;;;;;;48.13;4.80;;;;;;;;;;5123667;28;20028;-59
2024/02/19 02:42:05;;;;;;;31.45;4.80;;;;;;;;;;5104561;28;20249;-60
2024/02/19 02:44:31;;;;;;;38.55;5.50;;;;;;;;;;5120809;28;20031;-59
2024/02/19 02:46:57;;;;;;;31.70;5.57;;;;;;;;;;5116424;28;20024;-60
2024/02/19 02:49:22;;;;;;;42.47;5.70;;;;;;;;;;5115973;28;20271;-57
2024/02/19 02:51:48;;;;;;;33.97;5.27;;;;;;;;;;5115589;28;20268;-59
2024/02/19 02:54:13;;;;;;;37.78;5.88;;;;;;;;;;5119928;28;20095;-59
2024/02/19 02:56:39;;;;;;;41.30;5.95;;;;;;;;;;5115950;28;20066;-59
2024/02/19 02:59:04;;;;;;;36.57;4.97;;;;;;;;;;5116251;28;20061;-59
2024/02/19 03:01:30;;;;;;;52.30;6.65;;;;;;;;;;5116047;28;20474;-58
2024/02/19 03:03:55;;;;;;;41.00;5.50;;;;;;;;;;5127681;28;20032;-59
2024/02/19 03:06:21;;;;;;;43.70;5.95;;;;;;;;;;5116546;28;20036;-59
2024/02/19 03:08:46;;;;;;;49.03;8.57;;;;;;;;;;5115837;28;20032;-59
2024/02/19 03:11:15;;;;;;;63.43;12.33;;;;;;;;;;5115755;28;20035;-59
2024/02/19 03:13:40;;;;;;;46.50;7.83;;;;;;;;;;5118357;28;20042;-60
2024/02/19 03:16:05;;;;;;;43.57;9.07;;;;;;;;;;5115677;28;20269;-59
2024/02/19 03:18:32;;;;;;;60.80;11.98;;;;;;;;;;5117724;28;20052;-61
2024/02/19 03:20:58;;;;;;;53.17;9.43;;;;;;;;;;5116087;28;20050;-61
2024/02/19 03:23:24;;;;;;;39.40;7.63;;;;;;;;;;5119851;28;20087;-60
2024/02/19 03:25:49;;;;;;;41.97;6.23;;;;;;;;;;5115379;28;20038;-59
2024/02/19 03:28:15;;;;;;;38.00;6.22;;;;;;;;;;5107915;28;20036;-58
2024/02/19 03:30:40;;;;;;;39.67;6.50;;;;;;;;;;5115262;28;20056;-59
2024/02/19 03:33:06;;;;;;;38.92;5.30;;;;;;;;;;5118705;28;20039;-59
2024/02/19 03:35:31;;;;;;;37.03;5.47;;;;;;;;;;5115563;28;20042;-60
2024/02/19 03:37:57;;;;;;;36.83;7.13;;;;;;;;;;5115400;28;20319;-60
2024/02/19 03:40:23;;;;;;;38.97;5.70;;;;;;;;;;5115200;28;20264;-60
2024/02/19 03:42:48;;;;;;;39.83;5.28;;;;;;;;;;5115598;28;20256;-60
2024/02/19 03:45:14;;;;;;;41.73;6.03;;;;;;;;;;5116415;28;20039;-60
2024/02/19 03:47:41;;;;;;;35.57;4.53;;;;;;;;;;5115307;28;20267;-59
2024/02/19 03:50:06;;;;;;;24.80;5.17;;;;;;;;;;5115230;28;20308;-58
2024/02/19 03:52:32;;;;;;;41.90;6.07;;;;;;;;;;5115141;28;20307;-60
2024/02/19 03:54:57;;;;;;;32.90;5.13;;;;;;;;;;5118682;28;20260;-60
2024/02/19 03:57:23;;;;;;;34.40;4.57;;;;;;;;;;5115206;28;20032;-59
2024/02/19 03:59:49;;;;;;;30.48;4.90;;;;;;;;;;5114696;28;20028;-60
2024/02/19 04:02:15;;;;;;;37.80;5.70;;;;;;;;;;5114391;28;20039;-59
2024/02/19 04:04:40;;;;;;;32.75;6.88;;;;;;;;;;5117441;28;20032;-60
2024/02/19 04:07:05;;;;;;;31.30;5.87;;;;;;;;;;5115118;28;20064;-59
2024/02/19 04:09:31;;;;;;;42.63;7.45;;;;;;;;;;5105674;28;20012;-63
2024/02/19 04:11:57;;;;;;;47.38;5.47;;;;;;;;;;5115136;28;20051;-61
2024/02/19 04:14:25;;;;;;;49.58;6.70;;;;;;;;;;5119489;28;20028;-60
2024/02/19 04:16:50;;;;;;;37.70;6.37;;;;;;;;;;5114919;28;20032;-60
2024/02/19 04:19:17;;;;;;;40.47;5.67;;;;;;;;;;5111579;28;20383;-58
2024/02/19 04:21:44;;;;;;;40.92;7.28;;;;;;;;;;5114815;28;20268;-58
2024/02/19 04:24:09;;;;;;;33.83;7.20;;;;;;;;;;5117421;28;20036;-59
2024/02/19 04:26:35;;;;;;;39.97;9.23;;;;;;;;;;5114809;28;20261;-60
2024/02/19 04:29:00;;;;;;;52.57;8.73;;;;;;;;;;5117280;28;20296;-60
2024/02/19 04:31:26;;;;;;;35.72;8.48;;;;;;;;;;5123068;28;20036;-59
2024/02/19 04:33:51;;;;;;;62.73;11.17;;;;;;;;;;5119051;28;20038;-59
2024/02/19 04:36:17;;;;;;;46.40;10.18;;;;;;;;;;5122830;28;20039;-60
2024/02/19 04:38:42;;;;;;;62.17;11.15;;;;;;;;;;5114103;28;20028;-60
2024/02/19 04:41:08;;;;;;;56.60;11.23;;;;;;;;;;5116935;28;20059;-60
2024/02/19 04:43:33;;;;;;;49.33;10.63;;;;;;;;;;5114577;28;20252;-60
2024/02/19 04:45:59;;;;;;;45.10;9.83;;;;;;;;;;5114561;28;20275;-59
2024/02/19 04:48:24;;;;;;;55.58;10.60;;;;;;;;;;5113318;28;20062;-59
2024/02/19 04:50:50;;;;;;;46.20;10.60;;;;;;;;;;5114662;28;20070;-58
2024/02/19 04:53:18;;;;;;;49.20;8.73;;;;;;;;;;5108844;28;20287;-58
2024/02/19 04:55:45;;;;;;;47.27;6.63;;;;;;;;;;5110857;28;20028;-57
2024/02/19 04:58:10;;;;;;;43.60;7.03;;;;;;;;;;5111448;28;20284;-59
2024/02/19 05:00:37;;;;;;;35.05;6.50;;;;;;;;;;5111864;28;20058;-60
2024/02/19 05:03:04;;;;;;;38.65;7.40;;;;;;;;;;5110706;28;20048;-58
2024/02/19 05:05:29;;;;;;;37.13;6.17;;;;;;;;;;5110147;28;20030;-58
2024/02/19 05:07:55;;;;;;;36.50;5.93;;;;;;;;;;5112138;28;20293;-59
2024/02/19 05:10:20;;;;;;;34.43;6.13;;;;;;;;;;5109038;28;20073;-57
2024/02/19 05:12:46;;;;;;;31.02;6.75;;;;;;;;;;5113586;28;20035;-56
2024/02/19 05:15:12;;;;;;;26.90;6.38;;;;;;;;;;5114423;28;20095;-60
2024/02/19 05:17:38;;;;;;;42.90;8.40;;;;;;;;;;5117130;28;20034;-58
2024/02/19 05:20:05;;;;;;;33.45;6.75;;;;;;;;;;5125453;28;20046;-57
2024/02/19 05:22:31;;;;;;;41.97;6.63;;;;;;;;;;5115968;28;20016;-58
2024/02/19 05:24:56;;;;;;;47.07;8.43;;;;;;;;;;5117464;28;20275;-59
2024/02/19 05:27:24;;;;;;;46.85;6.35;;;;;;;;;;5117767;28;20058;-59
2024/02/19 05:29:50;;;;;;;34.67;6.33;;;;;;;;;;5117762;28;20107;-59
2024/02/19 05:32:16;;;;;;;39.15;6.25;;;;;;;;;;5129068;28;20264;-59
2024/02/19 05:34:41;;;;;;;28.93;6.80;;;;;;;;;;5117908;28;20054;-58
2024/02/19 05:37:07;;;;;;;33.73;8.60;;;;;;;;;;5118107;28;20288;-59
2024/02/19 05:39:32;;;;;;;34.05;6.45;;;;;;;;;;5105786;28;20029;-55
2024/02/19 05:41:58;;;;;;;33.25;6.97;;;;;;;;;;5116371;28;20027;-60
2024/02/19 05:44:23;;;;;;;25.42;4.72;;;;;;;;;;5117239;28;20020;-60
2024/02/19 05:46:49;;;;;;;28.00;5.88;;;;;;;;;;5116461;28;20051;-60
2024/02/19 05:49:14;;;;;;;25.43;4.70;;;;;;;;;;5117766;28;20044;-58
2024/02/19 05:51:41;;;;;;;24.83;5.33;;;;;;;;;;5113489;28;20276;-60
2024/02/19 05:54:07;;;;;;;26.95;6.22;;;;;;;;;;5111597;28;20221;-58
2024/02/19 05:56:32;;;;;;;36.67;5.38;;;;;;;;;;5113780;28;20062;-59
2024/02/19 05:58:58;;;;;;;22.73;5.17;;;;;;;;;;5114943;28;20024;-58
2024/02/19 06:01:23;;;;;;;22.70;5.35;;;;;;;;;;5113409;28;20267;-60
2024/02/19 06:03:49;;;;;;;17.53;4.83;;;;;;;;;;5113381;28;20131;-59
2024/02/19 06:06:14;;;;;;;22.57;4.57;;;;;;;;;;5113101;28;20283;-60
2024/02/19 06:08:40;;;;;;;20.17;3.78;;;;;;;;;;5113591;28;20247;-58
2024/02/19 06:11:05;;;;;;;27.03;4.83;;;;;;;;;;5113269;28;20057;-57
2024/02/19 06:13:31;;;;;;;33.30;5.45;;;;;;;;;;5112207;28;20028;-59
2024/02/19 06:15:56;;;;;;;32.13;5.87;;;;;;;;;;5112920;28;20062;-59
2024/02/19 06:18:22;;;;;;;36.93;5.57;;;;;;;;;;5106255;28;20036;-59
2024/02/19 06:20:47;;;;;;;31.77;4.40;;;;;;;;;;5109071;28;20047;-58
2024/02/19 06:23:13;;;;;;;25.70;5.30;;;;;;;;;;5114935;28;20027;-56
2024/02/19 06:25:38;;;;;;;26.67;4.57;;;;;;;;;;5113979;28;20051;-58
2024/02/19 06:28:04;;;;;;;22.38;4.82;;;;;;;;;;5115575;28;20035;-59
2024/02/19 06:30:30;;;;;;;26.65;4.25;;;;;;;;;;5114627;28;20032;-58
2024/02/19 06:32:56;;;;;;;35.88;6.47;;;;;;;;;;5116326;28;20043;-56
2024/02/19 06:35:21;;;;;;;20.70;4.40;;;;;;;;;;5113270;28;20032;-58
2024/02/19 06:37:48;;;;;;;18.10;4.50;;;;;;;;;;5116116;28;20040;-58
2024/02/19 06:40:13;;;;;;;25.17;5.30;;;;;;;;;;5115684;28;20103;-55
2024/02/19 06:42:38;;;;;;;31.90;5.57;;;;;;;;;;5117997;28;20042;-57
2024/02/19 06:45:04;;;;;;;20.63;4.13;;;;;;;;;;5116993;28;20028;-59
2024/02/19 06:47:29;;;;;;;26.45;4.60;;;;;;;;;;5115614;28;20028;-58
2024/02/19 06:49:55;;;;;;;20.10;5.45;;;;;;;;;;5115340;28;20028;-60
2024/02/19 06:52:22;;;;;;;24.43;5.40;;;;;;;;;;5110205;28;20039;-59
2024/02/19 06:54:51;;;;;;;28.13;5.70;;;;;;;;;;5111379;28;20354;-58
2024/02/19 06:57:17;;;;;;;32.17;7.33;;;;;;;;;;5111719;28;20278;-59
2024/02/19 06:59:42;;;;;;;23.30;5.40;;;;;;;;;;5109209;28;20261;-58
2024/02/19 07:02:08;;;;;;;28.52;4.80;;;;;;;;;;5112747;28;20050;-60
2024/02/19 07:04:36;;;;;;;35.28;6.32;;;;;;;;;;5112257;28;20119;-61
2024/02/19 07:07:03;;;;;;;26.37;6.07;;;;;;;;;;5110312;28;20088;-60
2024/02/19 07:09:28;;;;;;;36.33;5.80;;;;;;;;;;5112209;28;20340;-58
2024/02/19 07:11:54;;;;;;;16.87;4.67;;;;;;;;;;5111363;28;20257;-60
2024/02/19 07:14:19;;;;;;;28.07;6.57;;;;;;;;;;5112695;28;20286;-57
2024/02/19 07:16:45;;;;;;;36.45;6.30;;;;;;;;;;5112085;28;20034;-60
2024/02/19 07:19:10;;;;;;;21.47;4.73;;;;;;;;;;5113719;28;20036;-60
2024/02/19 07:21:36;;;;;;;20.45;5.80;;;;;;;;;;5114635;28;20083;-61
2024/02/19 07:24:02;;;;;;;24.52;5.18;;;;;;;;;;5116346;28;20077;-59
2024/02/19 07:26:27;;;;;;;26.35;4.50;;;;;;;;;;5116427;28;20065;-58
2024/02/19 07:28:52;;;;;;;23.37;5.13;;;;;;;;;;5129572;28;20051;-59
2024/02/19 07:31:18;;;;;;;28.08;4.53;;;;;;;;;;5115020;28;20028;-59
2024/02/19 07:33:43;;;;;;;30.90;4.75;;;;;;;;;;5115136;28;20035;-59
2024/02/19 07:36:09;;;;;;;20.80;4.60;;;;;;;;;;5117017;28;20054;-59
2024/02/19 07:38:35;;;;;;;21.42;5.00;;;;;;;;;;5114476;28;20287;-59
2024/02/19 07:41:00;;;;;;;21.43;4.90;;;;;;;;;;5114962;28;20059;-56
2024/02/19 07:43:25;;;;;;;26.13;5.90;;;;;;;;;;5120201;28;20028;-59
2024/02/19 07:45:51;;;;;;;19.95;5.47;;;;;;;;;;5113525;28;20080;-59
2024/02/19 07:48:17;;;;;;;30.70;5.32;;;;;;;;;;5114477;28;20119;-59
2024/02/19 07:50:42;;;;;;;21.73;5.82;;;;;;;;;;5112025;28;20033;-57
2024/02/19 07:53:08;;;;;;;20.00;5.23;;;;;;;;;;5111780;28;20063;-59
2024/02/19 07:55:35;;;;;;;33.45;5.43;;;;;;;;;;5113308;28;21109;-57
2024/02/19 07:58:00;;;;;;;31.37;6.07;;;;;;;;;;5109650;28;20095;-59
2024/02/19 08:00:26;;;;;;;21.13;6.32;;;;;;;;;;5110029;28;20261;-59
2024/02/19 08:02:52;;;;;;;33.33;5.10;;;;;;;;;;5110619;28;20023;-57
2024/02/19 08:05:17;;;;;;;36.97;5.80;;;;;;;;;;5111668;28;20070;-57
2024/02/19 08:07:43;;;;;;;19.50;5.50;;;;;;;;;;5112082;28;20035;-57
2024/02/19 08:10:08;;;;;;;36.97;5.13;;;;;;;;;;5111399;28;20036;-58
2024/02/19 08:12:34;;;;;;;29.67;6.23;;;;;;;;;;5113897;28;20296;-58
2024/02/19 08:15:00;;;;;;;22.60;5.70;;;;;;;;;;5114606;28;20290;-60
2024/02/19 08:17:25;;;;;;;25.00;5.57;;;;;;;;;;5110036;28;20028;-58
2024/02/19 08:19:51;;;;;;;21.03;5.00;;;;;;;;;;5117999;28;20040;-57
2024/02/19 08:22:16;;;;;;;21.38;6.20;;;;;;;;;;5115729;28;20329;-59
2024/02/19 08:24:41;;;;;;;26.10;5.73;;;;;;;;;;5121209;28;20045;-59
2024/02/19 08:27:07;;;;;;;15.75;4.65;;;;;;;;;;5115506;28;20031;-59
2024/02/19 08:29:32;;;;;;;30.23;5.20;;;;;;;;;;5113275;28;20066;-56
2024/02/19 08:31:59;;;;;;;23.92;4.93;;;;;;;;;;5118040;28;20272;-57
2024/02/19 08:34:25;;;;;;;24.37;5.30;;;;;;;;;;5118851;28;20032;-58
2024/02/19 08:36:51;;;;;;;23.93;5.87;;;;;;;;;;5114660;28;20328;-55
2024/02/19 08:39:16;;;;;;;17.60;5.10;;;;;;;;;;5118239;28;20071;-58
2024/02/19 08:41:41;;;;;;;20.75;6.05;;;;;;;;;;5113013;28;20119;-58
2024/02/19 08:44:07;;;;;;;32.27;7.17;;;;;;;;;;5116009;28;20036;-57
2024/02/19 08:46:32;;;;;;;24.73;5.30;;;;;;;;;;5118386;28;20265;-60
2024/02/19 08:48:58;;;;;;;25.33;6.13;;;;;;;;;;5115112;28;20279;-59
2024/02/19 08:51:23;;;;;;;19.92;6.30;;;;;;;;;;5112647;28;20304;-59
2024/02/19 08:53:49;;;;;;;18.73;6.27;;;;;;;;;;5115836;28;20044;-59
2024/02/19 08:56:15;;;;;;;24.80;7.15;;;;;;;;;;5115461;28;20074;-59
2024/02/19 08:58:41;;;;;;;23.17;5.88;;;;;;;;;;5113838;28;20035;-59
2024/02/19 09:01:10;;;;;;;26.10;5.67;;;;;;;;;;5114173;28;20028;-59
2024/02/19 09:03:37;;;;;;;26.83;5.83;;;;;;;;;;5112341;28;20088;-58
2024/02/19 09:06:03;;;;;;;24.07;6.87;;;;;;;;;;5115217;28;20298;-59
2024/02/19 09:08:28;;;;;;;22.95;6.53;;;;;;;;;;5113133;28;20338;-59
2024/02/19 09:10:54;;;;;;;15.77;6.70;;;;;;;;;;5113890;28;20032;-58
2024/02/19 09:13:20;;;;;;;28.92;7.03;;;;;;;;;;5113934;28;20088;-58
2024/02/19 09:15:45;;;;;;;27.37;7.20;;;;;;;;;;5114760;28;20024;-58
2024/02/19 09:18:11;;;;;;;20.20;7.38;;;;;;;;;;5116764;28;20392;-59
2024/02/19 09:20:37;;;;;;;30.52;8.38;;;;;;;;;;5108488;28;20036;-60
2024/02/19 09:23:02;;;;;;;27.10;8.83;;;;;;;;;;5114679;28;20038;-57
2024/02/19 09:25:28;;;;;;;32.17;9.48;;;;;;;;;;5123195;28;20035;-57
2024/02/19 09:27:53;;;;;;;25.67;8.32;;;;;;;;;;5117295;28;20036;-58
2024/02/19 09:30:19;;;;;;;24.05;8.27;;;;;;;;;;5117196;28;20036;-58
2024/02/19 09:32:44;;;;;;;19.40;6.60;;;;;;;;;;5103976;28;20039;-58
2024/02/19 09:35:10;;;;;;;30.23;7.10;;;;;;;;;;5122760;28;20028;-59
2024/02/19 09:37:35;;;;;;;27.60;7.43;;;;;;;;;;5114996;28;20032;-57
2024/02/19 09:40:04;;;;;;;30.87;7.93;;;;;;;;;;5116425;28;20040;-59
2024/02/19 09:42:31;;;;;;;29.87;8.50;;;;;;;;;;5118943;28;20048;-55
2024/02/19 09:44:56;;;;;;;34.22;8.88;;;;;;;;;;5128931;28;20266;-59
2024/02/19 09:47:22;;;;;;;34.97;8.85;;;;;;;;;;5114639;28;20044;-59
2024/02/19 09:49:48;;;;;;;33.40;8.65;;;;;;;;;;5116240;28;20020;-59
2024/02/19 09:52:19;;;;;;;29.98;8.50;;;;;;;;;;5110881;28;20038;-59
2024/02/19 09:54:45;;;;;;;30.07;7.70;;;;;;;;;;5112826;28;20069;-59
2024/02/19 09:57:10;;;;;;;51.25;8.30;;;;;;;;;;5110942;28;20260;-62
2024/02/19 09:59:37;;;;;;;26.53;7.67;;;;;;;;;;5111925;28;20032;-63
2024/02/19 10:02:03;;;;;;;30.97;8.03;;;;;;;;;;5112614;28;20062;-62
2024/02/19 10:04:31;;;;;;;33.23;8.90;;;;;;;;;;5116655;28;20268;-62
2024/02/19 10:07:01;;;;;;;30.93;8.13;;;;;;;;;;5113164;28;20306;-62
2024/02/19 10:09:26;;;;;;;16.70;6.83;;;;;;;;;;5111877;28;20292;-63
2024/02/19 10:11:52;;;;;;;28.00;7.30;;;;;;;;;;5111548;28;20273;-59
2024/02/19 10:14:18;;;;;;;27.88;8.18;;;;;;;;;;5112673;28;20043;-57
2024/02/19 10:16:50;;;;;;;25.95;8.05;;;;;;;;;;5115024;28;20020;-59
2024/02/19 10:19:16;;;;;;;21.40;7.17;;;;;;;;;;5113823;28;20268;-59
2024/02/19 10:21:42;;;;;;;21.77;6.90;;;;;;;;;;5109261;28;20261;-58
2024/02/19 10:24:07;;;;;;;20.90;8.13;;;;;;;;;;5110624;28;20280;-58
2024/02/19 10:26:33;;;;;;;23.30;7.43;;;;;;;;;;5130659;28;20038;-58
2024/02/19 10:28:58;;;;;;;21.00;6.85;;;;;;;;;;5114788;28;20074;-59
2024/02/19 10:31:24;;;;;;;30.87;7.00;;;;;;;;;;5121056;28;20123;-57
2024/02/19 10:33:49;;;;;;;22.80;7.38;;;;;;;;;;5112879;28;20228;-58
2024/02/19 10:36:22;;;;;;;25.40;6.53;;;;;;;;;;5117683;28;20050;-58
2024/02/19 10:38:48;;;;;;;29.10;6.97;;;;;;;;;;5115344;28;20027;-56
2024/02/19 10:41:14;;;;;;;25.02;6.95;;;;;;;;;;5113273;28;20276;-60
2024/02/19 10:43:39;;;;;;;21.20;7.13;;;;;;;;;;5106030;28;20399;-57
2024/02/19 10:46:05;;;;;;;26.70;6.40;;;;;;;;;;5116270;28;20040;-60
2024/02/19 10:48:33;;;;;;;20.42;6.50;;;;;;;;;;5113946;28;20024;-56
2024/02/19 10:51:02;;;;;;;20.20;6.47;;;;;;;;;;5110898;28;20032;-59
2024/02/19 10:53:28;;;;;;;18.87;5.73;;;;;;;;;;5110820;28;20294;-57
2024/02/19 10:56:13;;;;;;;18.48;6.25;;;;;;;;;;5111667;28;20296;-57
2024/02/19 10:58:51;;;;;;;18.43;6.40;;;;;;;;;;5109847;28;20039;-61
2024/02/19 11:01:16;;;;;;;25.90;6.50;;;;;;;;;;5110911;28;20275;-59
2024/02/19 11:03:45;;;;;;;27.60;7.60;;;;;;;;;;5113299;28;21129;-58
2024/02/19 11:06:11;;;;;;;25.30;7.37;;;;;;;;;;5116096;28;20069;-57
2024/02/19 11:08:38;;;;;;;25.57;7.23;;;;;;;;;;5112068;28;20285;-58
2024/02/19 11:11:03;;;;;;;26.23;7.53;;;;;;;;;;5109744;28;20261;-60
2024/02/19 11:13:29;;;;;;;25.17;6.28;;;;;;;;;;5108455;28;20038;-59
2024/02/19 11:15:55;;;;;;;19.13;6.05;;;;;;;;;;5108096;28;20028;-58
2024/02/19 11:18:20;;;;;;;17.83;6.23;;;;;;;;;;5109936;28;20062;-59
2024/02/19 11:20:47;;;;;;;17.42;6.22;;;;;;;;;;5111523;28;20028;-58
2024/02/19 11:23:14;;;;;;;30.13;6.70;;;;;;;;;;5114838;28;20580;-60
2024/02/19 11:25:40;;;;;;;23.70;7.03;;;;;;;;;;5111593;28;20024;-59
2024/02/19 11:28:06;;;;;;;21.97;5.60;;;;;;;;;;5110964;28;20336;-59
2024/02/19 11:30:31;;;;;;;13.77;6.33;;;;;;;;;;5111153;28;20279;-59
2024/02/19 11:33:00;;;;;;;30.87;6.40;;;;;;;;;;5111041;28;20260;-58
2024/02/19 11:35:26;;;;;;;17.53;5.63;;;;;;;;;;5109673;28;20032;-59
2024/02/19 11:37:51;;;;;;;30.50;6.90;;;;;;;;;;5115406;28;20287;-56
2024/02/19 11:40:16;;;;;;;17.90;6.43;;;;;;;;;;5115417;28;20098;-56
2024/02/19 11:42:42;;;;;;;37.23;6.60;;;;;;;;;;5110708;28;20032;-59
2024/02/19 11:45:08;;;;;;;20.05;6.45;;;;;;;;;;5111703;28;20068;-58
2024/02/19 11:47:35;;;;;;;20.63;5.70;;;;;;;;;;5109917;28;20062;-59
2024/02/19 11:50:00;;;;;;;22.67;6.30;;;;;;;;;;5109777;28;20028;-59
2024/02/19 11:52:26;;;;;;;21.55;6.15;;;;;;;;;;5119529;28;20340;-57
2024/02/19 11:54:55;;;;;;;22.75;6.05;;;;;;;;;;5113555;28;20052;-58
2024/02/19 11:57:22;;;;;;;33.33;7.83;;;;;;;;;;5128710;28;20027;-56
2024/02/19 11:59:48;;;;;;;20.40;6.63;;;;;;;;;;5114793;28;20257;-56
2024/02/19 12:02:13;;;;;;;33.93;8.10;;;;;;;;;;5113419;28;20290;-56
2024/02/19 12:04:39;;;;;;;27.20;6.90;;;;;;;;;;5113970;28;20268;-58
2024/02/19 12:07:10;;;;;;;29.27;8.00;;;;;;;;;;5118266;28;20256;-58
2024/02/19 12:09:35;;;;;;;29.53;7.57;;;;;;;;;;5114436;28;20031;-57
2024/02/19 12:12:02;;;;;;;30.87;8.40;;;;;;;;;;5116253;28;20252;-57
2024/02/19 12:14:28;;;;;;;27.07;7.73;;;;;;;;;;5109184;28;20028;-56
2024/02/19 12:16:55;;;;;;;31.67;8.30;;;;;;;;;;5115507;28;20276;-55
2024/02/19 12:19:20;;;;;;;26.40;8.18;;;;;;;;;;5114233;28;20024;-55
2024/02/19 12:21:46;;;;;;;20.38;8.07;;;;;;;;;;5121803;28;20051;-56
2024/02/19 12:24:11;;;;;;;27.63;8.87;;;;;;;;;;5121230;28;20032;-58
2024/02/19 12:26:38;;;;;;;28.77;10.20;;;;;;;;;;5124285;28;20442;-55
2024/02/19 12:29:03;;;;;;;33.92;11.95;;;;;;;;;;5120709;28;20035;-60
2024/02/19 12:31:29;;;;;;;19.77;10.55;;;;;;;;;;5119818;28;20075;-59
2024/02/19 12:33:55;;;;;;;28.92;11.43;;;;;;;;;;5119317;28;20032;-58
2024/02/19 12:36:20;;;;;;;30.95;11.20;;;;;;;;;;5130792;28;20032;-57
2024/02/19 12:38:47;;;;;;;17.83;9.63;;;;;;;;;;5123327;28;20035;-58
2024/02/19 12:41:14;;;;;;;29.00;11.97;;;;;;;;;;5120501;28;20047;-59
2024/02/19 12:43:44;;;;;;;27.63;10.55;;;;;;;;;;5127821;28;20283;-57
2024/02/19 12:46:10;;;;;;;34.40;12.27;;;;;;;;;;5126416;28;20035;-59
2024/02/19 12:48:35;;;;;;;27.40;12.25;;;;;;;;;;5112043;28;20294;-58
2024/02/19 12:51:01;;;;;;;40.30;14.75;;;;;;;;;;5118826;28;20036;-58
2024/02/19 12:53:28;;;;;;;50.00;19.65;;;;;;;;;;5118175;28;20228;-59
2024/02/19 12:55:53;;;;;;;46.10;18.70;;;;;;;;;;5124823;28;20036;-57
2024/02/19 12:58:19;;;;;;;41.73;19.27;;;;;;;;;;5119621;28;20308;-57
2024/02/19 13:00:44;;;;;;;38.03;18.30;;;;;;;;;;5117347;28;20032;-58
2024/02/19 13:03:10;;;;;;;36.92;18.42;;;;;;;;;;5112148;28;20110;-57
2024/02/19 13:05:35;;;;;;;46.07;19.77;;;;;;;;;;5125082;28;20028;-59
2024/02/19 13:08:00;;;;;;;43.03;19.67;;;;;;;;;;5111523;28;20104;-60
2024/02/19 13:10:26;;;;;;;45.03;19.70;;;;;;;;;;5120133;28;20043;-56
2024/02/19 13:12:51;;;;;;;38.97;16.85;;;;;;;;;;5127412;28;20027;-56
2024/02/19 13:15:17;;;;;;;41.03;19.08;;;;;;;;;;5121596;28;20031;-59
2024/02/19 13:17:44;;;;;;;50.28;21.30;;;;;;;;;;5120444;28;20028;-58
2024/02/19 13:20:10;;;;;;;45.43;21.63;;;;;;;;;;5120396;28;20039;-55
2024/02/19 13:22:35;;;;;;;42.73;20.43;;;;;;;;;;5120328;28;20260;-59
2024/02/19 13:25:00;;;;;;;50.77;21.30;;;;;;;;;;5120986;28;20032;-59
2024/02/19 13:27:26;;;;;;;43.78;20.52;;;;;;;;;;5121716;28;20035;-59
2024/02/19 13:29:52;;;;;;;48.53;19.58;;;;;;;;;;5119222;28;20081;-58
2024/02/19 13:32:17;;;;;;;46.38;20.63;;;;;;;;;;5119785;28;20028;-57
2024/02/19 13:34:43;;;;;;;29.60;13.52;;;;;;;;;;5117570;28;20088;-59
2024/02/19 13:37:08;;;;;;;32.15;9.98;;;;;;;;;;5117124;28;20059;-56
2024/02/19 13:39:34;;;;;;;21.45;7.72;;;;;;;;;;5117056;28;20091;-57
2024/02/19 13:42:00;;;;;;;27.13;8.97;;;;;;;;;;5115884;28;20058;-56
2024/02/19 13:44:25;;;;;;;30.53;8.17;;;;;;;;;;5126429;28;20476;-59
2024/02/19 13:46:50;;;;;;;20.37;6.87;;;;;;;;;;5124543;28;20084;-58
2024/02/19 13:49:16;;;;;;;20.90;6.72;;;;;;;;;;5116669;28;20032;-56
2024/02/19 13:51:42;;;;;;;24.37;7.60;;;;;;;;;;5116475;28;20057;-57
2024/02/19 13:54:07;;;;;;;34.85;11.55;;;;;;;;;;5116991;28;20039;-58
2024/02/19 13:56:33;;;;;;;31.33;9.47;;;;;;;;;;5114777;28;20028;-60
2024/02/19 13:58:58;;;;;;;23.83;8.80;;;;;;;;;;5106354;28;20377;-58
2024/02/19 14:01:24;;;;;;;26.58;8.90;;;;;;;;;;5115633;28;20027;-59
2024/02/19 14:03:50;;;;;;;20.53;7.53;;;;;;;;;;5118637;28;20032;-58
2024/02/19 14:06:15;;;;;;;20.60;8.40;;;;;;;;;;5122209;28;21391;-58
2024/02/19 14:08:41;;;;;;;24.65;8.23;;;;;;;;;;5109375;28;20039;-58
2024/02/19 14:11:07;;;;;;;26.80;9.23;;;;;;;;;;5115780;28;20067;-59
2024/02/19 14:13:33;;;;;;;25.58;8.18;;;;;;;;;;5112544;28;20064;-54
2024/02/19 14:15:58;;;;;;;20.10;6.82;;;;;;;;;;5116875;28;20028;-56
2024/02/19 14:18:27;;;;;;;23.15;8.15;;;;;;;;;;5116349;28;20081;-57
2024/02/19 14:20:53;;;;;;;23.63;8.33;;;;;;;;;;5118904;28;20042;-58